sensor_id;sensor_type;location;lat;lon;timestamp;temperature;humidity
22635;DHT22;11484;50.858;4.384;2023-09-18T00:00:48;23.10;99.90
22635;DHT22;11484;50.858;4.384;2023-09-18T00:03:21;23.20;99.90
22635;DHT22;11484;50.858;4.384;2023-09-18T00:05:50;23.20;99.90
22635;DHT22;11484;50.858;4.384;2023-09-18T00:08:18;23.20;99.90
22635;DHT22;11484;50.858;4.384;2023-09-18T00:10:53;23.10;99.90
22635;DHT22;11484;50.858;4.384;2023-09-18T00:13:19;23.00;99.90
22635;DHT22;11484;50.858;4.384;2023-09-18T00:15:45;23.00;99.90
22635;DHT22;11484;50.858;4.384;2023-09-18T00:18:16;23.10;99.90
22635;DHT22;11484;50.858;4.384;2023-09-18T00:20:42;23.00;99.90
22635;DHT22;11484;50.858;4.384;2023-09-18T00:23:08;23.10;99.90
22635;DHT22;11484;50.858;4.384;2023-09-18T00:25:35;23.20;99.90
22635;DHT22;11484;50.858;4.384;2023-09-18T00:28:00;23.30;99.90
22635;DHT22;11484;50.858;4.384;2023-09-18T00:30:26;23.40;99.90
22635;DHT22;11484;50.858;4.384;2023-09-18T00:32:52;23.30;99.90
22635;DHT22;11484;50.858;4.384;2023-09-18T00:35:17;23.40;99.90
22635;DHT22;11484;50.858;4.384;2023-09-18T00:37:43;23.40;99.90
22635;DHT22;11484;50.858;4.384;2023-09-18T00:40:09;23.40;99.90
22635;DHT22;11484;50.858;4.384;2023-09-18T00:42:36;23.40;99.90
22635;DHT22;11484;50.858;4.384;2023-09-18T00:45:02;23.30;99.90
22635;DHT22;11484;50.858;4.384;2023-09-18T00:47:28;23.30;99.90
22635;DHT22;11484;50.858;4.384;2023-09-18T00:49:54;23.30;99.90
22635;DHT22;11484;50.858;4.384;2023-09-18T00:52:22;23.30;99.90
22635;DHT22;11484;50.858;4.384;2023-09-18T00:54:49;23.20;99.90
22635;DHT22;11484;50.858;4.384;2023-09-18T00:57:15;23.10;99.90
22635;DHT22;11484;50.858;4.384;2023-09-18T00:59:41;23.00;99.90
22635;DHT22;11484;50.858;4.384;2023-09-18T01:02:07;23.00;99.90
22635;DHT22;11484;50.858;4.384;2023-09-18T01:04:34;23.00;99.90
22635;DHT22;11484;50.858;4.384;2023-09-18T01:07:00;23.00;99.90
22635;DHT22;11484;50.858;4.384;2023-09-18T01:09:32;22.90;99.90
22635;DHT22;11484;50.858;4.384;2023-09-18T01:17:35;22.80;99.90
22635;DHT22;11484;50.858;4.384;2023-09-18T01:20:04;22.80;99.90
22635;DHT22;11484;50.858;4.384;2023-09-18T01:22:31;22.80;99.90
22635;DHT22;11484;50.858;4.384;2023-09-18T01:24:58;22.80;99.90
22635;DHT22;11484;50.858;4.384;2023-09-18T01:27:24;22.70;99.90
22635;DHT22;11484;50.858;4.384;2023-09-18T01:29:49;22.60;99.90
22635;DHT22;11484;50.858;4.384;2023-09-18T01:32:15;22.40;99.90
22635;DHT22;11484;50.858;4.384;2023-09-18T01:34:51;22.40;99.90
22635;DHT22;11484;50.858;4.384;2023-09-18T01:37:20;22.40;99.90
22635;DHT22;11484;50.858;4.384;2023-09-18T01:39:48;22.50;99.90
22635;DHT22;11484;50.858;4.384;2023-09-18T01:42:14;22.50;99.90
22635;DHT22;11484;50.858;4.384;2023-09-18T01:44:41;22.40;99.90
22635;DHT22;11484;50.858;4.384;2023-09-18T01:47:13;22.50;99.90
22635;DHT22;11484;50.858;4.384;2023-09-18T01:49:40;22.40;99.90
22635;DHT22;11484;50.858;4.384;2023-09-18T01:52:07;22.40;99.90
22635;DHT22;11484;50.858;4.384;2023-09-18T01:54:34;22.30;99.90
22635;DHT22;11484;50.858;4.384;2023-09-18T01:57:00;22.30;99.90
22635;DHT22;11484;50.858;4.384;2023-09-18T01:59:26;22.30;99.90
22635;DHT22;11484;50.858;4.384;2023-09-18T02:01:52;22.30;99.90
22635;DHT22;11484;50.858;4.384;2023-09-18T02:04:19;22.30;99.90
22635;DHT22;11484;50.858;4.384;2023-09-18T02:06:46;22.20;99.90
22635;DHT22;11484;50.858;4.384;2023-09-18T02:09:15;22.30;99.90
22635;DHT22;11484;50.858;4.384;2023-09-18T02:11:42;22.20;99.90
22635;DHT22;11484;50.858;4.384;2023-09-18T02:14:09;22.20;99.90
22635;DHT22;11484;50.858;4.384;2023-09-18T02:16:36;22.20;99.90
22635;DHT22;11484;50.858;4.384;2023-09-18T02:19:03;22.20;99.90
22635;DHT22;11484;50.858;4.384;2023-09-18T02:21:29;22.10;99.90
22635;DHT22;11484;50.858;4.384;2023-09-18T02:23:55;22.20;99.90
22635;DHT22;11484;50.858;4.384;2023-09-18T02:26:22;22.10;99.90
22635;DHT22;11484;50.858;4.384;2023-09-18T02:28:48;22.10;99.90
22635;DHT22;11484;50.858;4.384;2023-09-18T02:31:14;22.00;99.90
22635;DHT22;11484;50.858;4.384;2023-09-18T02:33:40;22.00;99.90
22635;DHT22;11484;50.858;4.384;2023-09-18T02:36:06;22.00;99.90
22635;DHT22;11484;50.858;4.384;2023-09-18T02:38:32;22.00;99.90
22635;DHT22;11484;50.858;4.384;2023-09-18T02:40:59;22.10;99.90
22635;DHT22;11484;50.858;4.384;2023-09-18T02:43:25;21.90;99.90
22635;DHT22;11484;50.858;4.384;2023-09-18T02:45:51;21.80;99.90
22635;DHT22;11484;50.858;4.384;2023-09-18T02:48:17;21.60;99.90
22635;DHT22;11484;50.858;4.384;2023-09-18T02:50:43;21.60;99.90
22635;DHT22;11484;50.858;4.384;2023-09-18T02:53:20;21.70;99.90
22635;DHT22;11484;50.858;4.384;2023-09-18T02:55:48;21.80;99.90
22635;DHT22;11484;50.858;4.384;2023-09-18T02:58:14;21.80;99.90
22635;DHT22;11484;50.858;4.384;2023-09-18T03:00:43;21.80;99.90
22635;DHT22;11484;50.858;4.384;2023-09-18T03:03:09;21.80;99.90
22635;DHT22;11484;50.858;4.384;2023-09-18T03:05:36;21.70;99.90
22635;DHT22;11484;50.858;4.384;2023-09-18T03:08:01;21.80;99.90
22635;DHT22;11484;50.858;4.384;2023-09-18T03:10:27;21.70;99.90
22635;DHT22;11484;50.858;4.384;2023-09-18T03:12:53;21.70;99.90
22635;DHT22;11484;50.858;4.384;2023-09-18T03:15:19;21.70;99.90
22635;DHT22;11484;50.858;4.384;2023-09-18T03:17:44;21.70;99.90
22635;DHT22;11484;50.858;4.384;2023-09-18T03:20:11;21.80;99.90
22635;DHT22;11484;50.858;4.384;2023-09-18T03:22:36;21.90;99.90
22635;DHT22;11484;50.858;4.384;2023-09-18T03:25:02;21.90;99.90
22635;DHT22;11484;50.858;4.384;2023-09-18T03:27:29;22.00;99.90
22635;DHT22;11484;50.858;4.384;2023-09-18T03:29:57;22.00;99.90
22635;DHT22;11484;50.858;4.384;2023-09-18T03:32:23;22.00;99.90
22635;DHT22;11484;50.858;4.384;2023-09-18T03:34:53;22.10;99.90
22635;DHT22;11484;50.858;4.384;2023-09-18T03:37:19;22.00;99.90
22635;DHT22;11484;50.858;4.384;2023-09-18T03:39:46;22.00;99.90
22635;DHT22;11484;50.858;4.384;2023-09-18T03:42:12;22.00;99.90
22635;DHT22;11484;50.858;4.384;2023-09-18T03:44:40;21.90;99.90
22635;DHT22;11484;50.858;4.384;2023-09-18T03:47:06;21.80;99.90
22635;DHT22;11484;50.858;4.384;2023-09-18T03:49:32;21.70;99.90
22635;DHT22;11484;50.858;4.384;2023-09-18T03:51:57;21.70;99.90
22635;DHT22;11484;50.858;4.384;2023-09-18T03:54:23;21.60;99.90
22635;DHT22;11484;50.858;4.384;2023-09-18T03:56:49;21.60;99.90
22635;DHT22;11484;50.858;4.384;2023-09-18T03:59:14;21.60;99.90
22635;DHT22;11484;50.858;4.384;2023-09-18T04:01:40;21.60;99.90
22635;DHT22;11484;50.858;4.384;2023-09-18T04:04:06;21.60;99.90
22635;DHT22;11484;50.858;4.384;2023-09-18T04:06:51;21.60;99.90
22635;DHT22;11484;50.858;4.384;2023-09-18T04:09:17;21.50;99.90
22635;DHT22;11484;50.858;4.384;2023-09-18T04:11:43;21.50;99.90
22635;DHT22;11484;50.858;4.384;2023-09-18T04:14:09;21.50;99.90
22635;DHT22;11484;50.858;4.384;2023-09-18T04:16:35;21.50;99.90
22635;DHT22;11484;50.858;4.384;2023-09-18T04:19:04;21.50;99.90
22635;DHT22;11484;50.858;4.384;2023-09-18T04:21:30;21.40;99.90
22635;DHT22;11484;50.858;4.384;2023-09-18T04:23:56;21.40;99.90
22635;DHT22;11484;50.858;4.384;2023-09-18T04:26:24;21.30;99.90
22635;DHT22;11484;50.858;4.384;2023-09-18T04:28:55;21.30;99.90
22635;DHT22;11484;50.858;4.384;2023-09-18T04:31:21;21.30;99.90
22635;DHT22;11484;50.858;4.384;2023-09-18T04:33:46;21.30;99.90
22635;DHT22;11484;50.858;4.384;2023-09-18T04:36:12;21.30;99.90
22635;DHT22;11484;50.858;4.384;2023-09-18T04:38:38;21.30;99.90
22635;DHT22;11484;50.858;4.384;2023-09-18T04:41:03;21.20;99.90
22635;DHT22;11484;50.858;4.384;2023-09-18T04:43:29;21.10;99.90
22635;DHT22;11484;50.858;4.384;2023-09-18T04:45:56;21.10;99.90
22635;DHT22;11484;50.858;4.384;2023-09-18T04:48:21;21.00;99.90
22635;DHT22;11484;50.858;4.384;2023-09-18T04:50:48;21.00;99.90
22635;DHT22;11484;50.858;4.384;2023-09-18T04:53:14;21.00;99.90
22635;DHT22;11484;50.858;4.384;2023-09-18T04:55:40;21.00;99.90
22635;DHT22;11484;50.858;4.384;2023-09-18T04:58:05;21.00;99.90
22635;DHT22;11484;50.858;4.384;2023-09-18T05:00:32;20.90;99.90
22635;DHT22;11484;50.858;4.384;2023-09-18T05:02:59;20.90;99.90
22635;DHT22;11484;50.858;4.384;2023-09-18T05:05:27;20.90;99.90
22635;DHT22;11484;50.858;4.384;2023-09-18T05:07:53;20.90;99.90
22635;DHT22;11484;50.858;4.384;2023-09-18T05:10:18;20.90;99.90
22635;DHT22;11484;50.858;4.384;2023-09-18T05:12:44;20.80;99.90
22635;DHT22;11484;50.858;4.384;2023-09-18T05:15:11;20.80;99.90
22635;DHT22;11484;50.858;4.384;2023-09-18T05:17:43;20.80;99.90
22635;DHT22;11484;50.858;4.384;2023-09-18T05:20:10;20.80;99.90
22635;DHT22;11484;50.858;4.384;2023-09-18T05:22:43;20.90;99.90
22635;DHT22;11484;50.858;4.384;2023-09-18T05:25:09;20.80;99.90
22635;DHT22;11484;50.858;4.384;2023-09-18T05:27:40;20.80;99.90
22635;DHT22;11484;50.858;4.384;2023-09-18T05:30:15;20.70;99.90
22635;DHT22;11484;50.858;4.384;2023-09-18T05:32:42;20.70;99.90
22635;DHT22;11484;50.858;4.384;2023-09-18T05:35:09;20.60;99.90
22635;DHT22;11484;50.858;4.384;2023-09-18T05:37:38;20.50;99.90
22635;DHT22;11484;50.858;4.384;2023-09-18T05:40:06;20.60;99.90
22635;DHT22;11484;50.858;4.384;2023-09-18T05:42:35;20.60;99.90
22635;DHT22;11484;50.858;4.384;2023-09-18T05:45:02;20.60;99.90
22635;DHT22;11484;50.858;4.384;2023-09-18T05:47:32;20.60;99.90
22635;DHT22;11484;50.858;4.384;2023-09-18T05:49:57;20.50;99.90
22635;DHT22;11484;50.858;4.384;2023-09-18T05:52:23;20.50;99.90
22635;DHT22;11484;50.858;4.384;2023-09-18T05:54:51;20.50;99.90
22635;DHT22;11484;50.858;4.384;2023-09-18T05:57:17;20.60;99.90
22635;DHT22;11484;50.858;4.384;2023-09-18T05:59:43;20.60;99.90
22635;DHT22;11484;50.858;4.384;2023-09-18T06:02:12;20.50;99.90
22635;DHT22;11484;50.858;4.384;2023-09-18T06:04:38;20.40;99.90
22635;DHT22;11484;50.858;4.384;2023-09-18T06:07:04;20.50;99.90
22635;DHT22;11484;50.858;4.384;2023-09-18T06:09:30;20.50;99.90
22635;DHT22;11484;50.858;4.384;2023-09-18T06:11:56;20.60;99.90
22635;DHT22;11484;50.858;4.384;2023-09-18T06:14:22;20.60;99.90
22635;DHT22;11484;50.858;4.384;2023-09-18T06:16:48;20.70;99.90
22635;DHT22;11484;50.858;4.384;2023-09-18T06:19:16;20.80;99.90
22635;DHT22;11484;50.858;4.384;2023-09-18T06:21:43;20.70;99.90
22635;DHT22;11484;50.858;4.384;2023-09-18T06:24:09;20.70;99.90
22635;DHT22;11484;50.858;4.384;2023-09-18T06:26:35;20.70;99.90
22635;DHT22;11484;50.858;4.384;2023-09-18T06:29:03;20.60;99.90
22635;DHT22;11484;50.858;4.384;2023-09-18T06:31:35;20.70;99.90
22635;DHT22;11484;50.858;4.384;2023-09-18T06:34:01;20.70;99.90
22635;DHT22;11484;50.858;4.384;2023-09-18T06:36:26;20.70;99.90
22635;DHT22;11484;50.858;4.384;2023-09-18T06:38:52;20.70;99.90
22635;DHT22;11484;50.858;4.384;2023-09-18T06:41:19;20.70;99.90
22635;DHT22;11484;50.858;4.384;2023-09-18T06:43:45;20.70;99.90
22635;DHT22;11484;50.858;4.384;2023-09-18T06:46:11;20.80;99.90
22635;DHT22;11484;50.858;4.384;2023-09-18T06:48:37;20.80;99.90
22635;DHT22;11484;50.858;4.384;2023-09-18T06:51:03;20.80;99.90
22635;DHT22;11484;50.858;4.384;2023-09-18T06:53:28;20.80;99.90
22635;DHT22;11484;50.858;4.384;2023-09-18T06:55:55;20.80;99.90
22635;DHT22;11484;50.858;4.384;2023-09-18T06:58:20;20.80;99.90
22635;DHT22;11484;50.858;4.384;2023-09-18T07:00:47;20.80;99.90
22635;DHT22;11484;50.858;4.384;2023-09-18T07:03:13;20.80;99.90
22635;DHT22;11484;50.858;4.384;2023-09-18T07:05:42;20.80;99.90
22635;DHT22;11484;50.858;4.384;2023-09-18T07:08:08;20.70;99.90
22635;DHT22;11484;50.858;4.384;2023-09-18T07:10:37;20.70;99.90
22635;DHT22;11484;50.858;4.384;2023-09-18T07:13:04;20.70;99.90
22635;DHT22;11484;50.858;4.384;2023-09-18T07:15:30;20.70;99.90
22635;DHT22;11484;50.858;4.384;2023-09-18T07:17:55;20.80;99.90
22635;DHT22;11484;50.858;4.384;2023-09-18T07:20:21;20.80;99.90
22635;DHT22;11484;50.858;4.384;2023-09-18T07:22:49;20.90;99.90
22635;DHT22;11484;50.858;4.384;2023-09-18T07:25:16;20.90;99.90
22635;DHT22;11484;50.858;4.384;2023-09-18T07:27:42;21.10;99.90
22635;DHT22;11484;50.858;4.384;2023-09-18T07:30:11;21.40;99.90
22635;DHT22;11484;50.858;4.384;2023-09-18T07:32:41;21.50;99.90
22635;DHT22;11484;50.858;4.384;2023-09-18T07:35:11;21.40;99.90
22635;DHT22;11484;50.858;4.384;2023-09-18T07:37:38;21.30;99.90
22635;DHT22;11484;50.858;4.384;2023-09-18T07:40:06;21.30;99.90
22635;DHT22;11484;50.858;4.384;2023-09-18T07:42:32;21.70;99.90
22635;DHT22;11484;50.858;4.384;2023-09-18T07:44:59;22.10;99.90
22635;DHT22;11484;50.858;4.384;2023-09-18T07:47:24;22.20;99.90
22635;DHT22;11484;50.858;4.384;2023-09-18T07:49:51;22.20;99.90
22635;DHT22;11484;50.858;4.384;2023-09-18T07:52:17;22.30;99.90
22635;DHT22;11484;50.858;4.384;2023-09-18T07:54:43;22.60;99.90
22635;DHT22;11484;50.858;4.384;2023-09-18T07:57:09;22.60;99.90
22635;DHT22;11484;50.858;4.384;2023-09-18T07:59:36;22.50;99.90
22635;DHT22;11484;50.858;4.384;2023-09-18T08:02:02;22.50;99.90
22635;DHT22;11484;50.858;4.384;2023-09-18T08:04:31;22.70;99.90
22635;DHT22;11484;50.858;4.384;2023-09-18T08:06:57;22.90;99.90
22635;DHT22;11484;50.858;4.384;2023-09-18T08:09:23;23.00;99.90
22635;DHT22;11484;50.858;4.384;2023-09-18T08:11:49;23.00;99.90
22635;DHT22;11484;50.858;4.384;2023-09-18T08:14:16;23.00;99.90
22635;DHT22;11484;50.858;4.384;2023-09-18T08:16:42;23.00;99.90
22635;DHT22;11484;50.858;4.384;2023-09-18T08:19:08;23.00;99.90
22635;DHT22;11484;50.858;4.384;2023-09-18T08:21:35;23.00;99.90
22635;DHT22;11484;50.858;4.384;2023-09-18T08:24:01;22.90;99.90
22635;DHT22;11484;50.858;4.384;2023-09-18T08:26:26;22.90;99.90
22635;DHT22;11484;50.858;4.384;2023-09-18T08:28:53;22.90;99.90
22635;DHT22;11484;50.858;4.384;2023-09-18T08:31:19;23.00;99.90
22635;DHT22;11484;50.858;4.384;2023-09-18T08:33:45;23.00;99.90
22635;DHT22;11484;50.858;4.384;2023-09-18T08:36:11;22.90;99.90
22635;DHT22;11484;50.858;4.384;2023-09-18T08:38:38;22.60;99.90
22635;DHT22;11484;50.858;4.384;2023-09-18T08:41:04;22.60;99.90
22635;DHT22;11484;50.858;4.384;2023-09-18T08:43:32;22.50;99.90
22635;DHT22;11484;50.858;4.384;2023-09-18T08:46:03;22.50;99.90
22635;DHT22;11484;50.858;4.384;2023-09-18T08:48:30;22.40;99.90
22635;DHT22;11484;50.858;4.384;2023-09-18T08:51:05;22.30;99.90
22635;DHT22;11484;50.858;4.384;2023-09-18T08:53:34;22.40;99.90
22635;DHT22;11484;50.858;4.384;2023-09-18T08:56:01;22.50;99.90
22635;DHT22;11484;50.858;4.384;2023-09-18T08:58:34;22.60;99.90
22635;DHT22;11484;50.858;4.384;2023-09-18T09:01:05;22.50;99.90
22635;DHT22;11484;50.858;4.384;2023-09-18T09:03:36;22.40;99.90
22635;DHT22;11484;50.858;4.384;2023-09-18T09:06:02;22.30;99.90
22635;DHT22;11484;50.858;4.384;2023-09-18T09:08:28;22.20;99.90
22635;DHT22;11484;50.858;4.384;2023-09-18T09:10:54;22.10;99.90
22635;DHT22;11484;50.858;4.384;2023-09-18T09:13:23;22.00;99.90
22635;DHT22;11484;50.858;4.384;2023-09-18T09:15:52;22.10;99.90
22635;DHT22;11484;50.858;4.384;2023-09-18T09:18:22;22.10;99.90
22635;DHT22;11484;50.858;4.384;2023-09-18T09:20:55;22.20;99.90
22635;DHT22;11484;50.858;4.384;2023-09-18T09:23:26;22.30;99.90
22635;DHT22;11484;50.858;4.384;2023-09-18T09:25:54;22.30;99.90
22635;DHT22;11484;50.858;4.384;2023-09-18T09:28:30;22.30;99.90
22635;DHT22;11484;50.858;4.384;2023-09-18T09:31:02;22.30;99.90
22635;DHT22;11484;50.858;4.384;2023-09-18T09:33:28;22.30;99.90
22635;DHT22;11484;50.858;4.384;2023-09-18T09:35:55;22.30;99.90
22635;DHT22;11484;50.858;4.384;2023-09-18T09:38:31;22.40;99.90
22635;DHT22;11484;50.858;4.384;2023-09-18T09:40:58;22.30;99.90
22635;DHT22;11484;50.858;4.384;2023-09-18T09:43:34;22.30;99.90
22635;DHT22;11484;50.858;4.384;2023-09-18T09:46:01;22.40;99.90
22635;DHT22;11484;50.858;4.384;2023-09-18T09:48:28;22.30;99.90
22635;DHT22;11484;50.858;4.384;2023-09-18T09:51:00;22.20;99.90
22635;DHT22;11484;50.858;4.384;2023-09-18T09:53:43;22.20;99.90
22635;DHT22;11484;50.858;4.384;2023-09-18T09:56:10;22.10;99.90
22635;DHT22;11484;50.858;4.384;2023-09-18T09:58:36;22.10;99.90
22635;DHT22;11484;50.858;4.384;2023-09-18T10:01:03;21.90;99.90
22635;DHT22;11484;50.858;4.384;2023-09-18T10:03:38;21.90;99.90
22635;DHT22;11484;50.858;4.384;2023-09-18T10:06:05;21.90;99.90
22635;DHT22;11484;50.858;4.384;2023-09-18T10:08:32;22.00;99.90
22635;DHT22;11484;50.858;4.384;2023-09-18T10:11:09;22.00;99.90
22635;DHT22;11484;50.858;4.384;2023-09-18T10:16:13;22.10;99.90
22635;DHT22;11484;50.858;4.384;2023-09-18T10:21:38;22.00;99.90
22635;DHT22;11484;50.858;4.384;2023-09-18T10:24:26;22.00;99.90
22635;DHT22;11484;50.858;4.384;2023-09-18T10:27:02;22.10;99.90
22635;DHT22;11484;50.858;4.384;2023-09-18T10:29:29;22.20;99.90
22635;DHT22;11484;50.858;4.384;2023-09-18T10:31:56;22.30;99.90
22635;DHT22;11484;50.858;4.384;2023-09-18T10:34:23;22.50;99.90
22635;DHT22;11484;50.858;4.384;2023-09-18T10:36:53;22.50;99.90
22635;DHT22;11484;50.858;4.384;2023-09-18T10:39:25;22.50;99.90
22635;DHT22;11484;50.858;4.384;2023-09-18T10:41:56;22.60;99.90
22635;DHT22;11484;50.858;4.384;2023-09-18T10:44:27;22.60;99.90
22635;DHT22;11484;50.858;4.384;2023-09-18T10:46:55;22.70;99.90
22635;DHT22;11484;50.858;4.384;2023-09-18T10:49:22;22.60;99.90
22635;DHT22;11484;50.858;4.384;2023-09-18T10:51:54;22.50;99.90
22635;DHT22;11484;50.858;4.384;2023-09-18T10:54:24;22.50;99.90
22635;DHT22;11484;50.858;4.384;2023-09-18T10:56:51;22.50;99.90
22635;DHT22;11484;50.858;4.384;2023-09-18T10:59:18;22.50;99.90
22635;DHT22;11484;50.858;4.384;2023-09-18T11:01:44;22.50;99.90
22635;DHT22;11484;50.858;4.384;2023-09-18T11:04:11;22.60;99.90
22635;DHT22;11484;50.858;4.384;2023-09-18T11:09:26;22.40;99.90
22635;DHT22;11484;50.858;4.384;2023-09-18T11:12:14;22.50;99.90
22635;DHT22;11484;50.858;4.384;2023-09-18T11:14:50;22.50;99.90
22635;DHT22;11484;50.858;4.384;2023-09-18T11:17:38;22.50;99.90
22635;DHT22;11484;50.858;4.384;2023-09-18T11:22:45;22.80;99.90
22635;DHT22;11484;50.858;4.384;2023-09-18T11:25:34;23.00;99.90
22635;DHT22;11484;50.858;4.384;2023-09-18T11:28:02;23.10;99.90
22635;DHT22;11484;50.858;4.384;2023-09-18T11:30:29;23.20;99.90
22635;DHT22;11484;50.858;4.384;2023-09-18T11:32:58;23.30;99.90
22635;DHT22;11484;50.858;4.384;2023-09-18T11:35:25;23.40;99.90
22635;DHT22;11484;50.858;4.384;2023-09-18T11:38:09;23.50;99.90
22635;DHT22;11484;50.858;4.384;2023-09-18T11:40:37;23.50;99.90
22635;DHT22;11484;50.858;4.384;2023-09-18T11:43:25;23.50;99.90
22635;DHT22;11484;50.858;4.384;2023-09-18T11:45:52;23.50;99.90
22635;DHT22;11484;50.858;4.384;2023-09-18T11:48:20;23.60;99.90
22635;DHT22;11484;50.858;4.384;2023-09-18T11:50:46;23.60;99.90
22635;DHT22;11484;50.858;4.384;2023-09-18T11:53:14;23.60;99.90
22635;DHT22;11484;50.858;4.384;2023-09-18T11:55:40;23.60;99.90
22635;DHT22;11484;50.858;4.384;2023-09-18T11:58:06;23.50;99.90
22635;DHT22;11484;50.858;4.384;2023-09-18T12:00:35;23.60;99.90
22635;DHT22;11484;50.858;4.384;2023-09-18T12:03:24;23.80;99.90
22635;DHT22;11484;50.858;4.384;2023-09-18T12:06:02;23.90;99.90
22635;DHT22;11484;50.858;4.384;2023-09-18T12:08:31;23.90;99.90
22635;DHT22;11484;50.858;4.384;2023-09-18T12:10:58;23.90;99.90
22635;DHT22;11484;50.858;4.384;2023-09-18T12:13:27;23.70;99.90
22635;DHT22;11484;50.858;4.384;2023-09-18T12:16:00;23.70;99.90
22635;DHT22;11484;50.858;4.384;2023-09-18T12:18:27;23.60;99.90
22635;DHT22;11484;50.858;4.384;2023-09-18T12:20:55;23.50;99.90
22635;DHT22;11484;50.858;4.384;2023-09-18T12:23:22;23.50;99.90
22635;DHT22;11484;50.858;4.384;2023-09-18T12:25:55;23.50;99.90
22635;DHT22;11484;50.858;4.384;2023-09-18T12:28:22;23.50;99.90
22635;DHT22;11484;50.858;4.384;2023-09-18T12:30:47;23.70;99.90
22635;DHT22;11484;50.858;4.384;2023-09-18T12:33:16;23.90;99.90
22635;DHT22;11484;50.858;4.384;2023-09-18T12:35:42;24.00;99.90
22635;DHT22;11484;50.858;4.384;2023-09-18T12:38:16;24.10;99.90
22635;DHT22;11484;50.858;4.384;2023-09-18T12:40:43;24.20;99.90
22635;DHT22;11484;50.858;4.384;2023-09-18T12:43:12;24.30;99.90
22635;DHT22;11484;50.858;4.384;2023-09-18T12:45:40;24.30;99.90
22635;DHT22;11484;50.858;4.384;2023-09-18T12:48:06;24.40;99.90
22635;DHT22;11484;50.858;4.384;2023-09-18T12:50:32;24.50;99.90
22635;DHT22;11484;50.858;4.384;2023-09-18T12:53:27;24.60;99.90
22635;DHT22;11484;50.858;4.384;2023-09-18T12:56:08;24.40;99.90
22635;DHT22;11484;50.858;4.384;2023-09-18T12:58:35;24.30;99.90
22635;DHT22;11484;50.858;4.384;2023-09-18T13:01:05;24.30;99.90
22635;DHT22;11484;50.858;4.384;2023-09-18T13:03:34;24.40;99.90
22635;DHT22;11484;50.858;4.384;2023-09-18T13:06:19;24.40;99.90
22635;DHT22;11484;50.858;4.384;2023-09-18T13:08:46;24.40;99.90
22635;DHT22;11484;50.858;4.384;2023-09-18T13:11:12;24.40;99.90
22635;DHT22;11484;50.858;4.384;2023-09-18T13:13:41;24.40;99.90
22635;DHT22;11484;50.858;4.384;2023-09-18T13:16:08;24.40;99.90
22635;DHT22;11484;50.858;4.384;2023-09-18T13:18:38;24.30;99.90
22635;DHT22;11484;50.858;4.384;2023-09-18T13:21:13;24.30;99.90
22635;DHT22;11484;50.858;4.384;2023-09-18T13:23:41;24.40;99.90
22635;DHT22;11484;50.858;4.384;2023-09-18T13:26:07;24.40;99.90
22635;DHT22;11484;50.858;4.384;2023-09-18T13:28:34;24.40;99.90
22635;DHT22;11484;50.858;4.384;2023-09-18T13:31:02;24.40;99.90
22635;DHT22;11484;50.858;4.384;2023-09-18T13:33:30;24.50;99.90
22635;DHT22;11484;50.858;4.384;2023-09-18T13:35:58;24.40;99.90
22635;DHT22;11484;50.858;4.384;2023-09-18T13:38:24;24.40;99.90
22635;DHT22;11484;50.858;4.384;2023-09-18T13:40:53;24.30;99.90
22635;DHT22;11484;50.858;4.384;2023-09-18T13:43:22;24.40;99.90
22635;DHT22;11484;50.858;4.384;2023-09-18T13:45:49;24.40;99.90
22635;DHT22;11484;50.858;4.384;2023-09-18T13:48:17;24.40;99.90
22635;DHT22;11484;50.858;4.384;2023-09-18T13:50:44;24.40;99.90
22635;DHT22;11484;50.858;4.384;2023-09-18T13:53:10;24.50;99.90
22635;DHT22;11484;50.858;4.384;2023-09-18T13:55:35;24.60;99.90
22635;DHT22;11484;50.858;4.384;2023-09-18T13:58:02;24.60;99.90
22635;DHT22;11484;50.858;4.384;2023-09-18T14:00:31;24.60;99.90
22635;DHT22;11484;50.858;4.384;2023-09-18T14:02:57;24.60;99.90
22635;DHT22;11484;50.858;4.384;2023-09-18T14:05:23;24.60;99.90
22635;DHT22;11484;50.858;4.384;2023-09-18T14:07:49;24.60;99.90
22635;DHT22;11484;50.858;4.384;2023-09-18T14:10:16;24.60;99.90
22635;DHT22;11484;50.858;4.384;2023-09-18T14:12:43;24.50;99.90
22635;DHT22;11484;50.858;4.384;2023-09-18T14:15:10;24.40;99.90
22635;DHT22;11484;50.858;4.384;2023-09-18T14:17:37;24.40;99.90
22635;DHT22;11484;50.858;4.384;2023-09-18T14:20:04;24.50;99.90
22635;DHT22;11484;50.858;4.384;2023-09-18T14:22:33;24.60;99.90
22635;DHT22;11484;50.858;4.384;2023-09-18T14:24:59;24.60;99.90
22635;DHT22;11484;50.858;4.384;2023-09-18T14:27:29;24.60;99.90
22635;DHT22;11484;50.858;4.384;2023-09-18T14:29:57;24.40;99.90
22635;DHT22;11484;50.858;4.384;2023-09-18T14:32:24;24.30;99.90
22635;DHT22;11484;50.858;4.384;2023-09-18T14:34:50;24.30;99.90
22635;DHT22;11484;50.858;4.384;2023-09-18T14:37:16;24.20;99.90
22635;DHT22;11484;50.858;4.384;2023-09-18T14:39:41;24.20;99.90
22635;DHT22;11484;50.858;4.384;2023-09-18T14:42:07;24.10;99.90
22635;DHT22;11484;50.858;4.384;2023-09-18T14:44:33;23.40;99.90
22635;DHT22;11484;50.858;4.384;2023-09-18T14:46:59;22.70;99.90
22635;DHT22;11484;50.858;4.384;2023-09-18T14:49:25;22.30;99.90
22635;DHT22;11484;50.858;4.384;2023-09-18T14:51:53;21.90;99.90
22635;DHT22;11484;50.858;4.384;2023-09-18T14:54:19;21.70;99.90
22635;DHT22;11484;50.858;4.384;2023-09-18T14:56:45;21.50;99.90
22635;DHT22;11484;50.858;4.384;2023-09-18T14:59:12;21.40;99.90
22635;DHT22;11484;50.858;4.384;2023-09-18T15:01:38;21.40;99.90
22635;DHT22;11484;50.858;4.384;2023-09-18T15:04:04;21.40;99.90
22635;DHT22;11484;50.858;4.384;2023-09-18T15:06:30;21.50;99.90
22635;DHT22;11484;50.858;4.384;2023-09-18T15:08:56;21.50;99.90
22635;DHT22;11484;50.858;4.384;2023-09-18T15:11:21;21.50;99.90
22635;DHT22;11484;50.858;4.384;2023-09-18T15:13:49;21.50;99.90
22635;DHT22;11484;50.858;4.384;2023-09-18T15:16:14;21.50;99.90
22635;DHT22;11484;50.858;4.384;2023-09-18T15:18:40;21.60;99.90
22635;DHT22;11484;50.858;4.384;2023-09-18T15:21:06;21.70;99.90
22635;DHT22;11484;50.858;4.384;2023-09-18T15:23:32;21.70;99.90
22635;DHT22;11484;50.858;4.384;2023-09-18T15:25:58;21.70;99.90
22635;DHT22;11484;50.858;4.384;2023-09-18T15:28:24;21.70;99.90
22635;DHT22;11484;50.858;4.384;2023-09-18T15:30:52;21.70;99.90
22635;DHT22;11484;50.858;4.384;2023-09-18T15:33:18;21.70;99.90
22635;DHT22;11484;50.858;4.384;2023-09-18T15:35:46;21.70;99.90
22635;DHT22;11484;50.858;4.384;2023-09-18T15:38:12;21.80;99.90
22635;DHT22;11484;50.858;4.384;2023-09-18T15:40:38;21.70;99.90
22635;DHT22;11484;50.858;4.384;2023-09-18T15:43:04;21.60;99.90
22635;DHT22;11484;50.858;4.384;2023-09-18T15:45:31;21.50;99.90
22635;DHT22;11484;50.858;4.384;2023-09-18T15:47:56;21.60;99.90
22635;DHT22;11484;50.858;4.384;2023-09-18T15:50:22;21.60;99.90